createdAt,value
2022-12-23T00:00:22.973Z,1000.43
2022-12-23T00:01:23.029Z,1000.39
2022-12-23T00:02:23.061Z,1000.40
2022-12-23T00:03:23.032Z,1000.37
2022-12-23T00:04:22.965Z,1000.36
2022-12-23T00:05:22.920Z,1000.33
2022-12-23T00:06:22.919Z,1000.31
2022-12-23T00:07:22.892Z,1000.32
2022-12-23T00:08:22.898Z,1000.33
2022-12-23T00:09:22.869Z,1000.28
2022-12-23T00:10:22.861Z,1000.26
2022-12-23T00:11:22.894Z,1000.24
2022-12-23T00:12:22.838Z,1000.25
2022-12-23T00:13:22.824Z,1000.26
2022-12-23T00:14:22.840Z,1000.26
2022-12-23T00:15:22.804Z,1000.24
2022-12-23T00:16:22.843Z,1000.22
2022-12-23T00:17:23.406Z,1000.18
2022-12-23T00:18:22.783Z,1000.18
2022-12-23T00:19:22.766Z,1000.19
2022-12-23T00:20:22.748Z,1000.15
2022-12-23T00:21:22.739Z,1000.16
2022-12-23T00:22:22.726Z,1000.18
2022-12-23T00:23:22.728Z,1000.15
2022-12-23T00:24:22.702Z,1000.12
2022-12-23T00:25:22.697Z,1000.17
2022-12-23T00:26:22.682Z,1000.05
2022-12-23T00:27:22.685Z,999.99
2022-12-23T00:28:22.660Z,999.96
2022-12-23T00:29:22.655Z,999.98
2022-12-23T00:30:22.638Z,999.98
2022-12-23T00:31:22.638Z,999.95
2022-12-23T00:32:22.614Z,999.96
2022-12-23T00:33:22.603Z,999.95
2022-12-23T00:34:22.590Z,999.92
2022-12-23T00:35:22.587Z,999.91
2022-12-23T00:36:22.702Z,999.93
2022-12-23T00:37:22.558Z,999.91
2022-12-23T00:38:22.544Z,999.89
2022-12-23T00:39:22.533Z,999.85
2022-12-23T00:40:22.531Z,999.85
2022-12-23T00:41:22.519Z,999.89
2022-12-23T00:42:22.501Z,999.90
2022-12-23T00:43:22.532Z,999.88
2022-12-23T00:44:22.493Z,999.90
2022-12-23T00:45:22.468Z,999.84
2022-12-23T00:46:22.519Z,999.86
2022-12-23T00:47:22.467Z,999.87
2022-12-23T00:48:22.433Z,999.84
2022-12-23T00:49:22.425Z,999.82
2022-12-23T00:50:22.418Z,999.81
2022-12-23T00:51:22.400Z,999.76
2022-12-23T00:52:22.388Z,999.79
2022-12-23T00:53:22.406Z,999.73
2022-12-23T00:54:22.387Z,999.75
2022-12-23T00:55:22.368Z,999.79
2022-12-23T00:56:22.350Z,999.77
2022-12-23T00:57:22.340Z,999.81
2022-12-23T00:58:22.322Z,999.83
2022-12-23T00:59:22.366Z,999.79
2022-12-23T01:00:22.354Z,999.74
2022-12-23T01:01:22.368Z,999.74
2022-12-23T01:02:22.447Z,999.74
2022-12-23T01:03:22.378Z,999.76
2022-12-23T01:04:22.254Z,999.82
2022-12-23T01:05:22.251Z,999.78
2022-12-23T01:06:22.240Z,999.78
2022-12-23T01:07:22.220Z,999.81
2022-12-23T01:08:22.210Z,999.76
2022-12-23T01:09:22.198Z,999.80
2022-12-23T01:10:22.185Z,999.78
2022-12-23T01:11:22.181Z,999.79
2022-12-23T01:12:22.175Z,999.75
2022-12-23T01:13:22.153Z,999.71
2022-12-23T01:14:22.147Z,999.77
2022-12-23T01:15:22.148Z,999.77
2022-12-23T01:16:22.188Z,999.78
2022-12-23T01:17:22.325Z,999.73
2022-12-23T01:18:22.105Z,999.74
2022-12-23T01:19:22.090Z,999.73
2022-12-23T01:20:22.074Z,999.73
2022-12-23T01:21:22.064Z,999.70
2022-12-23T01:22:22.051Z,999.71
2022-12-23T01:23:22.062Z,999.70
2022-12-23T01:24:22.027Z,999.74
2022-12-23T01:25:22.021Z,999.75
2022-12-23T01:26:22.007Z,999.73
2022-12-23T01:27:22.000Z,999.71
2022-12-23T01:28:21.986Z,999.72
2022-12-23T01:29:22.005Z,999.73
2022-12-23T01:30:21.962Z,999.72
2022-12-23T01:31:21.999Z,999.69
2022-12-23T01:32:21.940Z,999.68
2022-12-23T01:33:21.937Z,999.67
2022-12-23T01:34:21.921Z,999.68
2022-12-23T01:35:21.925Z,999.69
2022-12-23T01:36:21.900Z,999.66
2022-12-23T01:37:21.887Z,999.65
2022-12-23T01:38:21.873Z,999.61
2022-12-23T01:39:21.868Z,999.58
2022-12-23T01:40:21.852Z,999.58
2022-12-23T01:41:21.847Z,999.59
2022-12-23T01:42:21.837Z,999.57
2022-12-23T01:43:21.814Z,999.53
2022-12-23T01:44:21.808Z,999.55
2022-12-23T01:45:21.796Z,999.55
2022-12-23T01:46:21.906Z,999.55
2022-12-23T01:47:21.808Z,999.54
2022-12-23T01:48:21.767Z,999.54
2022-12-23T01:49:21.755Z,999.51
2022-12-23T01:50:21.740Z,999.50
2022-12-23T01:51:21.734Z,999.48
2022-12-23T01:52:21.718Z,999.47
2022-12-23T01:53:21.747Z,999.50
2022-12-23T01:54:21.702Z,999.46
2022-12-23T01:55:21.691Z,999.47
2022-12-23T01:56:21.674Z,999.45
2022-12-23T01:57:21.662Z,999.44
2022-12-23T01:58:21.651Z,999.49
2022-12-23T01:59:21.652Z,999.47
2022-12-23T02:00:21.626Z,999.49
2022-12-23T02:01:21.717Z,999.42
2022-12-23T02:02:21.760Z,999.47
2022-12-23T02:03:21.690Z,999.49
2022-12-23T02:04:21.582Z,999.50
2022-12-23T02:05:21.620Z,999.44
2022-12-23T02:06:21.569Z,999.45
2022-12-23T02:07:21.551Z,999.43
2022-12-23T02:08:21.554Z,999.38
2022-12-23T02:09:21.532Z,999.42
2022-12-23T02:10:21.516Z,999.41
2022-12-23T02:11:21.530Z,999.36
2022-12-23T02:12:21.517Z,999.42
2022-12-23T02:13:21.482Z,999.38
2022-12-23T02:14:21.472Z,999.36
2022-12-23T02:15:21.472Z,999.35
2022-12-23T02:16:21.488Z,999.37
2022-12-23T02:17:21.443Z,999.33
2022-12-23T02:18:21.425Z,999.33
2022-12-23T02:19:21.437Z,999.31
2022-12-23T02:20:21.407Z,999.29
2022-12-23T02:21:21.401Z,999.29
2022-12-23T02:22:21.381Z,999.29
2022-12-23T02:23:21.376Z,999.28
2022-12-23T02:24:21.359Z,999.23
2022-12-23T02:25:21.364Z,999.20
2022-12-23T02:26:21.336Z,999.18
2022-12-23T02:27:21.324Z,999.18
2022-12-23T02:28:21.314Z,999.20
2022-12-23T02:29:21.323Z,999.17
2022-12-23T02:30:21.289Z,999.18
2022-12-23T02:31:21.379Z,999.17
2022-12-23T02:32:21.270Z,999.14
2022-12-23T02:33:21.255Z,999.14
2022-12-23T02:34:21.246Z,999.12
2022-12-23T02:35:21.261Z,999.10
2022-12-23T02:36:21.228Z,999.12
2022-12-23T02:37:21.208Z,999.09
2022-12-23T02:38:21.199Z,999.09
2022-12-23T02:39:21.187Z,999.06
2022-12-23T02:40:21.178Z,999.03
2022-12-23T02:41:21.185Z,999.05
2022-12-23T02:42:21.166Z,998.99
2022-12-23T02:43:21.143Z,999.00
2022-12-23T02:44:21.136Z,998.96
2022-12-23T02:45:21.123Z,998.96
2022-12-23T02:46:21.177Z,998.95
2022-12-23T02:47:21.131Z,998.96
2022-12-23T02:48:21.091Z,998.96
2022-12-23T02:49:21.075Z,998.95
2022-12-23T02:50:21.076Z,998.91
2022-12-23T02:51:21.084Z,998.94
2022-12-23T02:52:21.040Z,998.96
2022-12-23T02:53:21.050Z,998.94
2022-12-23T02:54:21.025Z,998.97
2022-12-23T02:55:21.014Z,998.99
2022-12-23T02:56:20.998Z,998.90
2022-12-23T02:57:20.994Z,998.89
2022-12-23T02:58:20.975Z,998.88
2022-12-23T02:59:20.973Z,998.86
2022-12-23T03:00:20.953Z,998.84
2022-12-23T03:01:20.995Z,998.82
2022-12-23T03:02:21.246Z,998.77
2022-12-23T03:03:21.284Z,998.79
2022-12-23T03:04:20.911Z,998.78
2022-12-23T03:05:20.921Z,998.73
2022-12-23T03:06:20.891Z,998.74
2022-12-23T03:07:20.921Z,998.69
2022-12-23T03:08:20.886Z,998.72
2022-12-23T03:09:20.858Z,998.72
2022-12-23T03:10:20.860Z,998.74
2022-12-23T03:11:20.841Z,998.71
2022-12-23T03:12:20.820Z,998.73
2022-12-23T03:13:20.804Z,998.74
2022-12-23T03:14:20.826Z,998.72
2022-12-23T03:15:20.790Z,998.75
2022-12-23T03:16:20.922Z,998.73
2022-12-23T03:17:20.765Z,998.69
2022-12-23T03:18:20.750Z,998.69
2022-12-23T03:19:20.741Z,998.67
2022-12-23T03:20:20.728Z,998.69
2022-12-23T03:21:20.719Z,998.69
2022-12-23T03:22:20.716Z,998.68
2022-12-23T03:23:20.728Z,998.69
2022-12-23T03:24:20.703Z,998.65
2022-12-23T03:25:20.686Z,998.62
2022-12-23T03:26:20.677Z,998.60
2022-12-23T03:27:20.651Z,998.59
2022-12-23T03:28:20.638Z,998.58
2022-12-23T03:29:20.636Z,998.58
2022-12-23T03:30:20.633Z,998.56
2022-12-23T03:31:20.689Z,998.52
2022-12-23T03:32:20.612Z,998.55
2022-12-23T03:33:20.587Z,998.57
2022-12-23T03:34:20.571Z,998.55
2022-12-23T03:35:20.583Z,998.57
2022-12-23T03:36:20.551Z,998.58
2022-12-23T03:37:20.537Z,998.60
2022-12-23T03:38:20.544Z,998.61
2022-12-23T03:39:20.548Z,998.62
2022-12-23T03:40:20.504Z,998.65
2022-12-23T03:41:20.516Z,998.58
2022-12-23T03:42:20.487Z,998.64
2022-12-23T03:43:20.469Z,998.57
2022-12-23T03:44:20.499Z,998.56
2022-12-23T03:45:37.972Z,998.53
2022-12-23T03:46:21.629Z,998.51
2022-12-23T03:47:20.441Z,998.45
2022-12-23T03:48:20.415Z,998.40
2022-12-23T03:49:20.433Z,998.38
2022-12-23T03:50:20.392Z,998.43
2022-12-23T03:51:20.381Z,998.39
2022-12-23T03:52:21.641Z,998.43
2022-12-23T03:53:20.361Z,998.41
2022-12-23T03:54:20.347Z,998.38
2022-12-23T03:55:20.356Z,998.34
2022-12-23T03:56:20.333Z,998.37
2022-12-23T03:57:20.315Z,998.36
2022-12-23T03:58:20.308Z,998.39
2022-12-23T03:59:20.293Z,998.42
2022-12-23T04:00:20.281Z,998.36
2022-12-23T04:01:20.300Z,998.35
2022-12-23T04:02:20.403Z,998.37
2022-12-23T04:03:20.247Z,998.32
2022-12-23T04:04:20.318Z,998.31
2022-12-23T04:05:20.226Z,998.32
2022-12-23T04:06:20.212Z,998.32
2022-12-23T04:07:20.201Z,998.32
2022-12-23T04:08:20.191Z,998.30
2022-12-23T04:09:22.316Z,998.30
2022-12-23T04:10:20.190Z,998.27
2022-12-23T04:11:20.183Z,998.29
2022-12-23T04:12:20.149Z,998.29
2022-12-23T04:13:20.134Z,998.33
2022-12-23T04:14:20.123Z,998.29
2022-12-23T04:15:20.120Z,998.28
2022-12-23T04:16:20.207Z,998.29
2022-12-23T04:17:20.091Z,998.25
2022-12-23T04:18:20.088Z,998.27
2022-12-23T04:19:20.069Z,998.24
2022-12-23T04:20:20.054Z,998.25
2022-12-23T04:21:20.048Z,998.22
2022-12-23T04:22:20.064Z,998.21
2022-12-23T04:23:20.023Z,998.26
2022-12-23T04:24:20.013Z,998.22
2022-12-23T04:25:19.999Z,998.22
2022-12-23T04:26:19.990Z,998.18
2022-12-23T04:27:20.000Z,998.13
2022-12-23T04:28:19.994Z,998.17
2022-12-23T04:29:19.973Z,998.12
2022-12-23T04:30:19.963Z,998.11
2022-12-23T04:31:19.987Z,998.08
2022-12-23T04:32:19.932Z,998.08
2022-12-23T04:33:19.910Z,998.10
2022-12-23T04:34:19.908Z,998.10
2022-12-23T04:35:19.906Z,998.07
2022-12-23T04:36:19.877Z,998.16
2022-12-23T04:37:19.865Z,998.15
2022-12-23T04:38:19.856Z,998.20
2022-12-23T04:39:19.854Z,998.19
2022-12-23T04:40:19.853Z,998.16
2022-12-23T04:41:19.821Z,998.12
2022-12-23T04:42:19.811Z,998.10
2022-12-23T04:43:19.819Z,998.13
2022-12-23T04:44:19.787Z,998.12
2022-12-23T04:45:19.778Z,998.04
2022-12-23T04:46:19.804Z,998.06
2022-12-23T04:47:19.760Z,998.08
2022-12-23T04:48:19.745Z,998.09
2022-12-23T04:49:19.734Z,998.06
2022-12-23T04:50:19.719Z,998.08
2022-12-23T04:51:19.716Z,998.09
2022-12-23T04:52:19.725Z,998.08
2022-12-23T04:53:19.687Z,998.10
2022-12-23T04:54:19.676Z,998.07
2022-12-23T04:55:19.669Z,998.10
2022-12-23T04:56:19.656Z,998.10
2022-12-23T04:57:19.644Z,998.09
2022-12-23T04:58:19.664Z,998.09
2022-12-23T04:59:19.638Z,998.08
2022-12-23T05:00:19.638Z,998.13
2022-12-23T05:01:19.619Z,998.15
2022-12-23T05:02:19.656Z,998.10
2022-12-23T05:03:19.694Z,998.09
2022-12-23T05:04:19.590Z,998.12
2022-12-23T05:05:19.553Z,998.13
2022-12-23T05:06:19.543Z,998.19
2022-12-23T05:07:19.531Z,998.17
2022-12-23T05:08:19.520Z,998.11
2022-12-23T05:09:19.509Z,998.11
2022-12-23T05:10:19.503Z,998.07
2022-12-23T05:11:19.489Z,998.09
2022-12-23T05:12:19.481Z,998.07
2022-12-23T05:13:19.478Z,998.10
2022-12-23T05:14:19.452Z,998.15
2022-12-23T05:15:19.460Z,998.11
2022-12-23T05:16:19.525Z,998.09
2022-12-23T05:17:19.420Z,998.07
2022-12-23T05:18:19.407Z,998.11
2022-12-23T05:19:19.402Z,998.11
2022-12-23T05:20:19.385Z,998.09
2022-12-23T05:21:19.373Z,998.10
2022-12-23T05:22:19.379Z,998.12
2022-12-23T05:23:19.351Z,998.13
2022-12-23T05:24:19.339Z,998.16
2022-12-23T05:25:19.329Z,998.11
2022-12-23T05:26:19.326Z,998.15
2022-12-23T05:27:19.305Z,998.17
2022-12-23T05:28:19.316Z,998.12
2022-12-23T05:29:19.286Z,998.14
2022-12-23T05:30:19.275Z,998.17
2022-12-23T05:31:19.316Z,998.15
2022-12-23T05:32:19.248Z,998.16
2022-12-23T05:33:19.296Z,998.15
2022-12-23T05:34:19.267Z,998.11
2022-12-23T05:35:19.221Z,998.09
2022-12-23T05:36:19.203Z,998.12
2022-12-23T05:37:19.193Z,998.08
2022-12-23T05:38:19.185Z,998.08
2022-12-23T05:39:19.175Z,998.08
2022-12-23T05:40:23.717Z,998.09
2022-12-23T05:41:20.150Z,998.08
2022-12-23T05:42:19.148Z,998.09
2022-12-23T05:43:19.125Z,998.11
2022-12-23T05:44:19.124Z,998.09
2022-12-23T05:45:19.107Z,998.14
2022-12-23T05:46:25.993Z,998.16
2022-12-23T05:47:20.102Z,998.13
2022-12-23T05:48:19.069Z,998.09
2022-12-23T05:49:19.065Z,998.10
2022-12-23T05:50:19.056Z,998.12
2022-12-23T05:51:19.039Z,998.13
2022-12-23T05:52:19.044Z,998.10
2022-12-23T05:53:19.016Z,998.19
2022-12-23T05:54:19.001Z,998.15
2022-12-23T05:55:18.999Z,998.16
2022-12-23T05:56:18.996Z,998.26
2022-12-23T05:57:18.970Z,998.19
2022-12-23T05:58:18.965Z,998.19
2022-12-23T05:59:18.945Z,998.17
2022-12-23T06:00:18.940Z,998.19
2022-12-23T06:01:18.927Z,998.17
2022-12-23T06:02:19.108Z,998.18
2022-12-23T06:03:19.267Z,998.17
2022-12-23T06:04:18.932Z,998.15
2022-12-23T06:05:18.880Z,998.20
2022-12-23T06:06:18.868Z,998.17
2022-12-23T06:07:18.879Z,998.20
2022-12-23T06:08:18.850Z,998.18
2022-12-23T06:09:18.835Z,998.19
2022-12-23T06:10:18.854Z,998.16
2022-12-23T06:11:18.812Z,998.26
2022-12-23T06:12:18.814Z,998.26
2022-12-23T06:13:18.790Z,998.23
2022-12-23T06:14:21.448Z,998.23
2022-12-23T06:15:19.775Z,998.24
2022-12-23T06:16:18.896Z,998.24
2022-12-23T06:17:18.746Z,998.27
2022-12-23T06:18:18.738Z,998.20
2022-12-23T06:19:18.748Z,998.21
2022-12-23T06:20:20.988Z,998.21
2022-12-23T06:21:18.730Z,998.23
2022-12-23T06:22:18.688Z,998.26
2022-12-23T06:23:18.685Z,998.23
2022-12-23T06:24:18.666Z,998.27
2022-12-23T06:25:18.659Z,998.33
2022-12-23T06:26:18.644Z,998.34
2022-12-23T06:27:18.647Z,998.33
2022-12-23T06:28:18.626Z,998.34
2022-12-23T06:29:18.611Z,998.37
2022-12-23T06:30:18.597Z,998.32
2022-12-23T06:31:18.669Z,998.37
2022-12-23T06:32:18.762Z,998.40
2022-12-23T06:33:18.571Z,998.49
2022-12-23T06:34:18.556Z,998.41
2022-12-23T06:35:18.583Z,998.42
2022-12-23T06:36:18.533Z,998.38
2022-12-23T06:37:18.527Z,998.44
2022-12-23T06:38:18.516Z,998.47
2022-12-23T06:39:18.515Z,998.47
2022-12-23T06:40:18.492Z,998.48
2022-12-23T06:41:18.476Z,998.52
2022-12-23T06:42:18.465Z,998.58
2022-12-23T06:43:18.454Z,998.54
2022-12-23T06:44:18.446Z,998.53
2022-12-23T06:45:18.460Z,998.53
2022-12-23T06:46:18.477Z,998.58
2022-12-23T06:47:18.408Z,998.54
2022-12-23T06:48:18.397Z,998.57
2022-12-23T06:49:18.390Z,998.56
2022-12-23T06:50:18.395Z,998.61
2022-12-23T06:51:18.392Z,998.61
2022-12-23T06:52:18.356Z,998.65
2022-12-23T06:53:18.349Z,998.66
2022-12-23T06:54:18.331Z,998.78
2022-12-23T06:55:18.340Z,998.71
2022-12-23T06:56:18.312Z,998.70
2022-12-23T06:57:18.328Z,998.71
2022-12-23T06:58:18.286Z,998.75
2022-12-23T06:59:18.272Z,998.85
2022-12-23T07:00:18.269Z,998.74
2022-12-23T07:01:18.294Z,998.72
2022-12-23T07:02:18.491Z,998.75
2022-12-23T07:03:18.305Z,998.77
2022-12-23T07:04:18.231Z,998.77
2022-12-23T07:05:18.208Z,998.79
2022-12-23T07:06:18.195Z,998.82
2022-12-23T07:07:18.210Z,998.81
2022-12-23T07:08:18.171Z,998.82
2022-12-23T07:09:18.174Z,998.89
2022-12-23T07:10:18.150Z,998.87
2022-12-23T07:11:18.143Z,998.87
2022-12-23T07:12:18.127Z,998.85
2022-12-23T07:13:18.135Z,998.91
2022-12-23T07:14:18.104Z,998.90
2022-12-23T07:15:18.109Z,998.97
2022-12-23T07:16:18.138Z,998.98
2022-12-23T07:17:18.071Z,999.01
2022-12-23T07:18:18.066Z,999.11
2022-12-23T07:19:18.064Z,999.04
2022-12-23T07:20:18.066Z,999.09
2022-12-23T07:21:24.919Z,999.08
2022-12-23T07:22:19.025Z,999.03
2022-12-23T07:23:18.041Z,999.00
2022-12-23T07:24:18.005Z,999.05
2022-12-23T07:25:17.991Z,999.04
2022-12-23T07:26:17.989Z,999.09
2022-12-23T07:27:17.984Z,999.06
2022-12-23T07:28:17.947Z,999.08
2022-12-23T07:29:17.958Z,999.13
2022-12-23T07:30:17.927Z,999.14
2022-12-23T07:31:17.972Z,999.12
2022-12-23T07:32:17.902Z,999.12
2022-12-23T07:33:17.930Z,999.14
2022-12-23T07:34:17.893Z,999.15
2022-12-23T07:35:17.871Z,999.13
2022-12-23T07:36:17.862Z,999.16
2022-12-23T07:37:17.855Z,999.12
2022-12-23T07:38:17.839Z,999.16
2022-12-23T07:39:17.865Z,999.19
2022-12-23T07:40:17.831Z,999.19
2022-12-23T07:41:17.829Z,999.17
2022-12-23T07:42:44.147Z,999.20
2022-12-23T07:43:18.781Z,999.17
2022-12-23T07:44:17.767Z,999.19
2022-12-23T07:45:17.775Z,999.20
2022-12-23T07:46:17.863Z,999.22
2022-12-23T07:47:17.737Z,999.25
2022-12-23T07:48:17.721Z,999.25
2022-12-23T07:49:17.710Z,999.23
2022-12-23T07:50:17.724Z,999.23
2022-12-23T07:51:17.704Z,999.19
2022-12-23T07:52:17.685Z,999.20
2022-12-23T07:53:17.667Z,999.17
2022-12-23T07:54:17.656Z,999.17
2022-12-23T07:55:17.660Z,999.18
2022-12-23T07:56:17.639Z,999.19
2022-12-23T07:57:17.659Z,999.20
2022-12-23T07:58:17.610Z,999.24
2022-12-23T07:59:17.598Z,999.28
2022-12-23T08:00:17.587Z,999.27
2022-12-23T08:01:17.671Z,999.23
2022-12-23T08:02:17.862Z,999.30
2022-12-23T08:03:17.911Z,999.27
2022-12-23T08:04:17.567Z,999.25
2022-12-23T08:05:17.617Z,999.30
2022-12-23T08:06:17.529Z,999.26
2022-12-23T08:07:17.507Z,999.27
2022-12-23T08:08:17.500Z,999.27
2022-12-23T08:09:17.514Z,999.30
2022-12-23T08:10:17.517Z,999.38
2022-12-23T08:11:17.485Z,999.36
2022-12-23T08:12:17.457Z,999.33
2022-12-23T08:13:17.448Z,999.37
2022-12-23T08:14:17.436Z,999.36
2022-12-23T08:15:17.435Z,999.35
2022-12-23T08:16:17.482Z,999.37
2022-12-23T08:17:17.469Z,999.42
2022-12-23T08:18:17.389Z,999.43
2022-12-23T08:19:17.390Z,999.43
2022-12-23T08:20:17.386Z,999.47
2022-12-23T08:21:17.360Z,999.48
2022-12-23T08:22:17.358Z,999.50
2022-12-23T08:23:22.924Z,999.48
2022-12-23T08:24:18.338Z,999.48
2022-12-23T08:25:17.305Z,999.50
2022-12-23T08:26:17.300Z,999.47
2022-12-23T08:27:17.380Z,999.49
2022-12-23T08:28:17.271Z,999.50
2022-12-23T08:29:17.263Z,999.54
2022-12-23T08:30:17.247Z,999.49
2022-12-23T08:31:17.346Z,999.46
2022-12-23T08:32:17.228Z,999.48
2022-12-23T08:33:17.233Z,999.48
2022-12-23T08:34:17.207Z,999.50
2022-12-23T08:35:17.196Z,999.50
2022-12-23T08:36:22.355Z,999.48
2022-12-23T08:37:18.184Z,999.54
2022-12-23T08:38:17.166Z,999.51
2022-12-23T08:39:17.172Z,999.52
2022-12-23T08:40:17.138Z,999.53
2022-12-23T08:41:17.129Z,999.57
2022-12-23T08:42:17.123Z,999.59
2022-12-23T08:43:17.200Z,999.61
2022-12-23T08:44:17.095Z,999.63
2022-12-23T08:45:17.105Z,999.66
2022-12-23T08:46:17.189Z,999.65
2022-12-23T08:47:17.064Z,999.64
2022-12-23T08:48:17.055Z,999.60
2022-12-23T08:49:17.038Z,999.63
2022-12-23T08:50:17.080Z,999.63
2022-12-23T08:51:17.021Z,999.62
2022-12-23T08:52:17.005Z,999.52
2022-12-23T08:53:16.999Z,999.52
2022-12-23T08:54:16.987Z,999.52
2022-12-23T08:55:16.971Z,999.56
2022-12-23T08:56:16.963Z,999.54
2022-12-23T08:57:16.959Z,999.56
2022-12-23T08:58:16.968Z,999.59
2022-12-23T08:59:19.525Z,999.61
2022-12-23T09:00:16.916Z,999.61
2022-12-23T09:01:16.970Z,999.66
2022-12-23T09:02:17.189Z,999.67
2022-12-23T09:03:17.048Z,999.65
2022-12-23T09:04:16.886Z,999.71
2022-12-23T09:05:16.869Z,999.69
2022-12-23T09:06:16.850Z,999.72
2022-12-23T09:07:16.840Z,999.73
2022-12-23T09:08:16.826Z,999.76
2022-12-23T09:09:16.845Z,999.78
2022-12-23T09:10:16.805Z,999.80
2022-12-23T09:11:16.793Z,999.86
2022-12-23T09:12:16.781Z,999.86
2022-12-23T09:13:26.193Z,999.82
2022-12-23T09:14:17.775Z,999.82
2022-12-23T09:15:16.815Z,999.83
2022-12-23T09:16:16.809Z,999.81
2022-12-23T09:17:16.726Z,999.79
2022-12-23T09:18:16.721Z,999.79
2022-12-23T09:19:16.706Z,999.89
2022-12-23T09:20:16.696Z,999.92
2022-12-23T09:21:16.689Z,999.90
2022-12-23T09:22:16.668Z,999.92
2022-12-23T09:23:16.659Z,999.93
2022-12-23T09:24:16.645Z,999.92
2022-12-23T09:25:16.643Z,999.90
2022-12-23T09:26:16.646Z,999.95
2022-12-23T09:27:16.611Z,1000.03
2022-12-23T09:28:16.601Z,1000.05
2022-12-23T09:29:16.591Z,1000.08
2022-12-23T09:30:16.575Z,1000.12
2022-12-23T09:31:16.691Z,1000.08
2022-12-23T09:32:16.587Z,1000.08
2022-12-23T09:33:16.547Z,1000.13
2022-12-23T09:34:16.547Z,1000.18
2022-12-23T09:35:16.540Z,1000.22
2022-12-23T09:36:16.521Z,1000.31
2022-12-23T09:37:16.505Z,1000.36
2022-12-23T09:38:16.495Z,1000.32
2022-12-23T09:39:16.479Z,1000.35
2022-12-23T09:40:16.470Z,1000.31
2022-12-23T09:41:16.469Z,1000.33
2022-12-23T09:42:16.444Z,1000.36
2022-12-23T09:43:16.435Z,1000.33
2022-12-23T09:44:16.429Z,1000.37
2022-12-23T09:45:16.410Z,1000.43
2022-12-23T09:46:16.480Z,1000.37
2022-12-23T09:47:16.419Z,1000.44
2022-12-23T09:48:16.379Z,1000.43
2022-12-23T09:49:16.463Z,1000.47
2022-12-23T09:50:16.364Z,1000.48
2022-12-23T09:51:16.345Z,1000.53
2022-12-23T09:52:16.347Z,1000.53
2022-12-23T09:53:16.323Z,1000.58
2022-12-23T09:54:17.406Z,1000.59
2022-12-23T09:55:16.309Z,1000.60
2022-12-23T09:56:16.315Z,1000.59
2022-12-23T09:57:16.286Z,1000.63
2022-12-23T09:58:16.266Z,1000.60
2022-12-23T09:59:16.255Z,1000.59
2022-12-23T10:00:16.254Z,1000.61
2022-12-23T10:01:16.273Z,1000.62
2022-12-23T10:02:16.442Z,1000.64
2022-12-23T10:03:16.439Z,1000.63
2022-12-23T10:04:16.311Z,1000.64
2022-12-23T10:05:16.193Z,1000.65
2022-12-23T10:06:16.180Z,1000.71
2022-12-23T10:07:16.168Z,1000.74
2022-12-23T10:08:16.187Z,1000.76
2022-12-23T10:09:16.143Z,1000.84
2022-12-23T10:10:16.132Z,1000.85
2022-12-23T10:11:16.120Z,1000.82
2022-12-23T10:12:16.115Z,1000.83
2022-12-23T10:13:16.108Z,1000.73
2022-12-23T10:14:16.107Z,1000.71
2022-12-23T10:15:16.075Z,1000.69
2022-12-23T10:16:16.082Z,1000.65
2022-12-23T10:17:16.053Z,1000.62
2022-12-23T10:18:16.043Z,1000.65
2022-12-23T10:19:16.049Z,1000.64
2022-12-23T10:20:16.027Z,1000.67
2022-12-23T10:21:16.015Z,1000.66
2022-12-23T10:22:15.998Z,1000.71
2022-12-23T10:23:15.993Z,1000.71
2022-12-23T10:24:15.977Z,1000.65
2022-12-23T10:25:15.975Z,1000.67
2022-12-23T10:26:15.966Z,1000.67
2022-12-23T10:27:15.946Z,1000.67
2022-12-23T10:28:15.937Z,1000.70
2022-12-23T10:29:19.121Z,1000.69
2022-12-23T10:30:50.959Z,1000.68
2022-12-23T10:31:39.232Z,1000.70
2022-12-23T10:32:17.066Z,1000.71
2022-12-23T10:33:15.875Z,1000.73
2022-12-23T10:34:15.863Z,1000.73
2022-12-23T10:35:15.869Z,1000.68
2022-12-23T10:36:15.891Z,1000.68
2022-12-23T10:37:15.852Z,1000.69
2022-12-23T10:38:15.825Z,1000.71
2022-12-23T10:39:15.827Z,1000.75
2022-12-23T10:40:15.796Z,1000.79
2022-12-23T10:41:15.792Z,1000.72
2022-12-23T10:42:15.774Z,1000.71
2022-12-23T10:43:15.822Z,1000.71
2022-12-23T10:44:15.752Z,1000.70
2022-12-23T10:45:15.750Z,1000.72
2022-12-23T10:46:15.787Z,1000.68
2022-12-23T10:47:15.719Z,1000.69
2022-12-23T10:48:15.734Z,1000.62
2022-12-23T10:49:15.709Z,1000.61
2022-12-23T10:50:15.691Z,1000.60
2022-12-23T10:51:15.693Z,1000.61
2022-12-23T10:52:15.674Z,1000.62
2022-12-23T10:53:15.650Z,1000.55
2022-12-23T10:54:15.636Z,1000.57
2022-12-23T10:55:15.647Z,1000.56
2022-12-23T10:56:15.617Z,1000.53
2022-12-23T10:57:15.608Z,1000.55
2022-12-23T10:58:15.611Z,1000.58
2022-12-23T10:59:15.593Z,1000.60
2022-12-23T11:00:15.572Z,1000.59
2022-12-23T11:01:24.144Z,1000.59
2022-12-23T11:02:16.765Z,1000.62
2022-12-23T11:03:15.657Z,1000.62
2022-12-23T11:04:15.530Z,1000.64
2022-12-23T11:05:15.515Z,1000.68
2022-12-23T11:06:15.505Z,1000.67
2022-12-23T11:07:45.763Z,1000.67
2022-12-23T11:08:16.484Z,1000.64
2022-12-23T11:09:15.474Z,1000.67
2022-12-23T11:10:15.461Z,1000.72
2022-12-23T11:11:15.460Z,1000.75
2022-12-23T11:12:15.439Z,1000.67
2022-12-23T11:13:15.433Z,1000.71
2022-12-23T11:14:15.428Z,1000.73
2022-12-23T11:15:15.407Z,1000.67
2022-12-23T11:16:15.442Z,1000.71
2022-12-23T11:17:15.387Z,1000.68
2022-12-23T11:18:15.371Z,1000.69
2022-12-23T11:19:15.366Z,1000.77
2022-12-23T11:20:15.492Z,1000.71
2022-12-23T11:21:15.342Z,1000.69
2022-12-23T11:22:15.329Z,1000.70
2022-12-23T11:23:15.341Z,1000.68
2022-12-23T11:24:15.306Z,1000.60
2022-12-23T11:25:15.299Z,1000.64
2022-12-23T11:26:15.281Z,1000.63
2022-12-23T11:27:15.270Z,1000.65
2022-12-23T11:28:15.266Z,1000.63
2022-12-23T11:29:15.259Z,1000.66
2022-12-23T11:30:15.300Z,1000.65
2022-12-23T11:31:15.299Z,1000.63
2022-12-23T11:32:15.213Z,1000.66
2022-12-23T11:33:15.209Z,1000.67
2022-12-23T11:34:15.203Z,1000.69
2022-12-23T11:35:15.219Z,1000.80
2022-12-23T11:36:15.177Z,1000.74
2022-12-23T11:37:15.191Z,1000.77
2022-12-23T11:38:15.147Z,1000.73
2022-12-23T11:39:15.187Z,1000.79
2022-12-23T11:40:15.132Z,1000.83
2022-12-23T11:41:15.118Z,1000.85
2022-12-23T11:42:15.101Z,1000.82
2022-12-23T11:43:15.111Z,1000.86
2022-12-23T11:44:15.078Z,1000.87
2022-12-23T11:45:15.067Z,1000.89
2022-12-23T11:46:15.130Z,1000.87
2022-12-23T11:47:15.044Z,1000.86
2022-12-23T11:48:15.038Z,1000.88
2022-12-23T11:49:15.056Z,1000.85
2022-12-23T11:50:15.055Z,1000.87
2022-12-23T11:51:15.002Z,1000.90
2022-12-23T11:52:14.990Z,1000.89
2022-12-23T11:53:14.991Z,1000.92
2022-12-23T11:54:14.968Z,1000.96
2022-12-23T11:55:15.022Z,1000.97
2022-12-23T11:56:14.946Z,1000.96
2022-12-23T11:57:15.090Z,1001.00
2022-12-23T11:58:14.924Z,1001.03
2022-12-23T11:59:14.910Z,1001.04
2022-12-23T12:00:14.899Z,1001.06
2022-12-23T12:01:14.923Z,1001.04
2022-12-23T12:02:14.960Z,1001.07
2022-12-23T12:03:14.947Z,1001.05
2022-12-23T12:04:14.856Z,1001.07
2022-12-23T12:05:14.843Z,1001.08
2022-12-23T12:06:14.832Z,1001.09
2022-12-23T12:07:14.847Z,1001.07
2022-12-23T12:08:14.820Z,1001.15
2022-12-23T12:09:14.808Z,1001.18
2022-12-23T12:10:14.790Z,1001.22
2022-12-23T12:11:14.818Z,1001.27
2022-12-23T12:12:14.778Z,1001.28
2022-12-23T12:13:14.761Z,1001.29
2022-12-23T12:14:14.749Z,1001.32
2022-12-23T12:15:14.737Z,1001.33
2022-12-23T12:16:14.773Z,1001.29
2022-12-23T12:17:14.792Z,1001.34
2022-12-23T12:18:14.729Z,1001.27
2022-12-23T12:19:14.701Z,1001.34
2022-12-23T12:20:14.676Z,1001.31
2022-12-23T12:21:14.665Z,1001.30
2022-12-23T12:22:14.685Z,1001.34